createdAt,value
2018-09-15T00:00:41.356Z,100764.93
2018-09-15T00:03:08.268Z,100767.19
2018-09-15T00:05:35.261Z,100771.22
2018-09-15T00:08:02.237Z,100773.65
2018-09-15T00:10:29.083Z,100779.17
2018-09-15T00:12:55.996Z,100780.91
2018-09-15T00:15:22.979Z,100795.16
2018-09-15T00:17:50.153Z,100788.99
2018-09-15T00:20:16.955Z,100794.36
2018-09-15T00:22:43.823Z,100791.76
2018-09-15T00:25:10.891Z,100790.49
2018-09-15T00:27:37.838Z,100799.43
2018-09-15T00:30:04.822Z,100797.08
2018-09-15T00:32:31.792Z,100799.23
2018-09-15T00:34:58.754Z,100798.59
2018-09-15T00:37:25.724Z,100792.42
2018-09-15T00:39:52.631Z,100794.69
2018-09-15T00:42:19.491Z,100800.45
2018-09-15T00:44:46.469Z,100791.66
2018-09-15T00:47:13.445Z,100797.77
2018-09-15T00:49:40.371Z,100793.73
2018-09-15T00:52:07.315Z,100795.80
2018-09-15T00:54:34.330Z,100798.74
2018-09-15T00:57:01.240Z,100808.62
2018-09-15T00:59:28.215Z,100806.98
2018-09-15T01:01:55.159Z,100810.34
2018-09-15T01:04:22.350Z,100807.68
2018-09-15T01:06:49.285Z,100807.36
2018-09-15T01:09:16.215Z,100813.52
2018-09-15T01:11:43.187Z,100816.90
2018-09-15T01:14:10.191Z,100815.02
2018-09-15T01:16:37.046Z,100819.06
2018-09-15T01:19:04.244Z,100815.44
2018-09-15T01:21:31.203Z,100819.91
2018-09-15T01:23:58.167Z,100820.09
2018-09-15T01:26:25.031Z,100816.58
2018-09-15T01:28:52.212Z,100820.70
2018-09-15T01:31:20.878Z,100825.98
2018-09-15T01:33:47.891Z,100825.38
2018-09-15T01:36:14.751Z,100821.55
2018-09-15T01:38:41.653Z,100829.79
2018-09-15T01:41:08.700Z,100833.34
2018-09-15T01:43:35.571Z,100833.23
2018-09-15T01:46:02.560Z,100830.75
2018-09-15T01:48:29.411Z,100828.83
2018-09-15T01:50:56.382Z,100829.48
2018-09-15T01:53:23.359Z,100829.80
2018-09-15T01:55:50.283Z,100830.47
2018-09-15T01:58:17.211Z,100831.78
2018-09-15T02:00:44.179Z,100832.92
2018-09-15T02:03:11.140Z,100834.48
2018-09-15T02:05:38.091Z,100835.48
2018-09-15T02:08:05.138Z,100839.08
2018-09-15T02:10:32.028Z,100841.98
2018-09-15T02:12:58.970Z,100841.06
2018-09-15T02:15:26.843Z,100842.38
2018-09-15T02:17:53.828Z,100841.13
2018-09-15T02:20:20.951Z,100847.17
2018-09-15T02:22:47.736Z,100848.23
2018-09-15T02:25:14.674Z,100855.20
2018-09-15T02:27:41.642Z,100858.66
2018-09-15T02:30:08.599Z,100859.63
2018-09-15T02:32:35.471Z,100856.39
2018-09-15T02:35:02.399Z,100858.52
2018-09-15T02:37:29.379Z,100858.49
2018-09-15T02:39:56.311Z,100859.50
2018-09-15T02:42:23.168Z,100864.42
2018-09-15T02:44:50.123Z,100871.28
2018-09-15T02:47:17.079Z,100864.42
2018-09-15T02:49:44.053Z,100865.72
2018-09-15T02:52:11.037Z,100857.49
2018-09-15T02:54:38.027Z,100859.11
2018-09-15T02:57:04.972Z,100867.92
2018-09-15T02:59:31.908Z,100864.65
2018-09-15T03:01:58.827Z,100858.12
2018-09-15T03:04:25.803Z,100863.23
2018-09-15T03:06:52.752Z,100868.33
2018-09-15T03:09:19.707Z,100869.98
2018-09-15T03:11:46.660Z,100865.39
2018-09-15T03:14:13.528Z,100876.22
2018-09-15T03:16:40.472Z,100874.41
2018-09-15T03:19:07.480Z,100875.91
2018-09-15T03:21:34.503Z,100872.80
2018-09-15T03:24:01.464Z,100877.53
2018-09-15T03:26:28.516Z,100881.72
2018-09-15T03:28:55.480Z,100878.08
2018-09-15T03:31:22.488Z,100879.08
2018-09-15T03:33:49.458Z,100877.37
2018-09-15T03:36:16.331Z,100883.16
2018-09-15T03:38:43.295Z,100881.70
2018-09-15T03:41:10.251Z,100884.83
2018-09-15T03:43:37.220Z,100888.21
2018-09-15T03:46:04.185Z,100890.07
2018-09-15T03:48:31.187Z,100889.09
2018-09-15T03:50:58.075Z,100893.83
2018-09-15T03:53:25.035Z,100898.60
2018-09-15T03:55:51.969Z,100902.19
2018-09-15T03:58:18.863Z,100903.77
2018-09-15T04:00:47.220Z,100906.52
2018-09-15T04:03:14.207Z,100906.28
2018-09-15T04:05:41.187Z,100912.01
2018-09-15T04:08:08.136Z,100911.73
2018-09-15T04:10:35.083Z,100916.36
2018-09-15T04:13:02.033Z,100915.47
2018-09-15T04:15:29.040Z,100919.80
2018-09-15T04:17:55.934Z,100915.00
2018-09-15T04:20:22.807Z,100920.27
2018-09-15T04:22:49.777Z,100925.13
2018-09-15T04:25:16.719Z,100927.25
2018-09-15T04:27:43.705Z,100928.43
2018-09-15T04:30:10.564Z,100931.48
2018-09-15T04:32:37.604Z,100932.19
2018-09-15T04:35:04.547Z,100933.44
2018-09-15T04:37:31.530Z,100937.72
2018-09-15T04:39:58.463Z,100946.30
2018-09-15T04:42:25.339Z,100948.96
2018-09-15T04:44:52.381Z,100950.91
2018-09-15T04:47:19.352Z,100950.43
2018-09-15T04:49:46.290Z,100956.25
2018-09-15T04:52:13.176Z,100951.36
2018-09-15T04:54:40.257Z,100953.20
2018-09-15T04:57:07.173Z,100962.34
2018-09-15T04:59:34.121Z,100964.40
2018-09-15T05:02:01.063Z,100963.90
2018-09-15T05:04:27.936Z,100966.95
2018-09-15T05:06:54.996Z,100967.41
2018-09-15T05:09:21.977Z,100969.03
2018-09-15T05:11:48.903Z,100964.15
2018-09-15T05:14:15.871Z,100967.48
2018-09-15T05:16:42.732Z,100965.73
2018-09-15T05:19:09.694Z,100967.63
2018-09-15T05:21:36.895Z,100978.59
2018-09-15T05:24:03.984Z,100983.48
2018-09-15T05:26:30.840Z,100974.45
2018-09-15T05:28:57.720Z,100974.09
2018-09-15T05:31:24.762Z,100983.83
2018-09-15T05:33:51.636Z,100984.36
2018-09-15T05:36:18.490Z,100988.63
2018-09-15T05:38:45.439Z,100989.83
2018-09-15T05:41:12.390Z,100993.08
2018-09-15T05:43:39.412Z,100989.01
2018-09-15T05:46:06.347Z,100996.81
2018-09-15T05:48:33.368Z,101001.96
2018-09-15T05:51:00.328Z,101002.86
2018-09-15T05:53:27.287Z,101002.04
2018-09-15T05:55:54.287Z,101010.70
2018-09-15T05:58:21.211Z,101010.65
2018-09-15T06:00:48.411Z,101011.90
2018-09-15T06:03:15.315Z,101022.22
2018-09-15T06:05:42.308Z,101025.02
2018-09-15T06:08:09.239Z,101023.92
2018-09-15T06:10:36.208Z,101022.27
2018-09-15T06:13:03.157Z,101027.17
2018-09-15T06:15:30.143Z,101028.88
2018-09-15T06:17:57.064Z,101026.87
2018-09-15T06:20:24.035Z,101033.11
2018-09-15T06:22:51.012Z,101032.02
2018-09-15T06:25:17.956Z,101037.28
2018-09-15T06:27:44.912Z,101039.97
2018-09-15T06:30:11.879Z,101040.35
2018-09-15T06:32:38.812Z,101038.98
2018-09-15T06:35:05.768Z,101032.47
2018-09-15T06:37:32.722Z,101034.27
2018-09-15T06:39:59.584Z,101038.41
2018-09-15T06:42:26.724Z,101040.67
2018-09-15T06:44:53.599Z,101040.46
2018-09-15T06:47:20.560Z,101038.16
2018-09-15T06:49:47.516Z,101043.92
2018-09-15T06:52:14.472Z,101041.13
2018-09-15T06:54:41.435Z,101043.96
2018-09-15T06:57:08.395Z,101039.84
2018-09-15T06:59:35.400Z,101052.81
2018-09-15T07:02:03.345Z,101057.41
2018-09-15T07:04:30.280Z,101054.78
2018-09-15T07:06:57.300Z,101063.32
2018-09-15T07:09:24.281Z,101072.66
2018-09-15T07:11:51.151Z,101064.64
2018-09-15T07:14:18.019Z,101066.88
2018-09-15T07:16:45.051Z,101058.83
2018-09-15T07:19:11.924Z,101064.55
2018-09-15T07:21:38.916Z,101068.66
2018-09-15T07:24:05.839Z,101064.69
2018-09-15T07:26:32.801Z,101064.16
2018-09-15T07:29:00.040Z,101069.97
2018-09-15T07:31:26.941Z,101065.81
2018-09-15T07:33:53.907Z,101068.85
2018-09-15T07:36:20.896Z,101066.48
2018-09-15T07:38:47.751Z,101074.29
2018-09-15T07:41:15.823Z,101068.94
2018-09-15T07:43:41.703Z,101071.41
2018-09-15T07:46:08.563Z,101075.95
2018-09-15T07:48:35.516Z,101077.47
2018-09-15T07:51:02.479Z,101080.78
2018-09-15T07:53:29.447Z,101086.28
2018-09-15T07:55:56.391Z,101086.97
2018-09-15T07:58:23.264Z,101097.73
2018-09-15T08:00:50.206Z,101099.00
2018-09-15T08:03:17.178Z,101101.63
2018-09-15T08:05:44.119Z,101095.08
2018-09-15T08:08:10.995Z,101097.26
2018-09-15T08:10:37.932Z,101093.84
2018-09-15T08:13:04.879Z,101094.27
2018-09-15T08:15:31.841Z,101095.34
2018-09-15T08:17:58.848Z,101095.45
2018-09-15T08:20:25.704Z,101097.21
2018-09-15T08:22:52.602Z,101100.78
2018-09-15T08:25:19.624Z,101096.19
2018-09-15T08:27:46.515Z,101104.64
2018-09-15T08:30:13.494Z,101093.11
2018-09-15T08:32:40.639Z,101092.29
2018-09-15T08:35:07.633Z,101106.09
2018-09-15T08:37:34.592Z,101100.91
2018-09-15T08:40:01.633Z,101098.52
2018-09-15T08:42:28.459Z,101104.98
2018-09-15T08:44:55.440Z,101102.23
2018-09-15T08:47:22.387Z,101099.14
2018-09-15T08:49:49.401Z,101101.59
2018-09-15T08:52:16.287Z,101104.15
2018-09-15T08:54:43.159Z,101108.04
2018-09-15T08:57:10.111Z,101100.00
2018-09-15T08:59:37.088Z,101095.98
2018-09-15T09:02:04.032Z,101096.78
2018-09-15T09:04:30.892Z,101104.87
2018-09-15T09:06:57.857Z,101101.97
2018-09-15T09:09:24.803Z,101097.22
2018-09-15T09:11:51.759Z,101097.89
2018-09-15T09:14:18.715Z,101099.63
2018-09-15T09:16:45.670Z,101089.59
2018-09-15T09:19:12.634Z,101090.30
2018-09-15T09:21:39.613Z,101090.80
2018-09-15T09:24:06.547Z,101096.29
2018-09-15T09:26:33.630Z,101097.97
2018-09-15T09:29:00.524Z,101104.45
2018-09-15T09:31:27.465Z,101095.64
2018-09-15T09:33:54.387Z,101087.52
2018-09-15T09:36:21.364Z,101091.94
2018-09-15T09:38:48.291Z,101089.97
2018-09-15T09:41:15.257Z,101104.07
2018-09-15T09:43:42.274Z,101091.78
2018-09-15T09:46:09.203Z,101086.38
2018-09-15T09:48:36.267Z,101105.48
2018-09-15T09:51:03.197Z,101107.78
2018-09-15T09:53:30.447Z,101101.83
2018-09-15T09:55:57.407Z,101096.27
2018-09-15T09:58:24.372Z,101100.22
2018-09-15T10:00:57.243Z,101102.58
2018-09-15T10:03:24.115Z,101118.15
2018-09-15T10:05:51.004Z,101110.66
2018-09-15T10:08:17.965Z,101113.33
2018-09-15T10:10:44.891Z,101102.16
2018-09-15T10:13:11.844Z,101096.09
2018-09-15T10:15:38.820Z,101092.05
2018-09-15T10:18:05.764Z,101087.23
2018-09-15T10:20:32.908Z,101087.16
2018-09-15T10:22:59.907Z,101076.36
2018-09-15T10:25:26.831Z,101080.06
2018-09-15T10:27:53.787Z,101078.50
2018-09-15T10:30:20.812Z,101078.59
2018-09-15T10:32:47.725Z,101084.48
2018-09-15T10:35:14.695Z,101079.19
2018-09-15T10:37:41.611Z,101088.37
2018-09-15T10:40:08.618Z,101085.59
2018-09-15T10:42:35.547Z,101086.30
2018-09-15T10:45:02.535Z,101084.69
2018-09-15T10:47:29.443Z,101096.53
2018-09-15T10:49:56.406Z,101097.78
2018-09-15T10:52:23.392Z,101101.20
2018-09-15T10:54:50.347Z,101098.37
2018-09-15T10:57:17.308Z,101090.20
2018-09-15T10:59:44.295Z,101081.41
2018-09-15T11:02:12.856Z,101080.18
2018-09-15T11:04:40.109Z,101085.12
2018-09-15T11:07:07.116Z,101086.39
2018-09-15T11:09:34.021Z,101079.75
2018-09-15T11:12:01.103Z,101082.86
2018-09-15T11:14:28.031Z,101079.00
2018-09-15T11:16:54.901Z,101080.59
2018-09-15T11:19:21.839Z,101085.68
2018-09-15T11:21:48.802Z,101100.80
2018-09-15T11:24:15.771Z,101090.17
2018-09-15T11:26:42.724Z,101092.94
2018-09-15T11:29:09.770Z,101098.88
2018-09-15T11:31:36.667Z,101092.95
2018-09-15T11:34:03.623Z,101088.79
2018-09-15T11:36:30.549Z,101076.31
2018-09-15T11:38:57.552Z,101069.23
2018-09-15T11:41:24.469Z,101070.88
2018-09-15T11:43:51.419Z,101071.49
2018-09-15T11:46:18.411Z,101072.44
2018-09-15T11:48:45.344Z,101063.56
2018-09-15T11:51:12.303Z,101070.72
2018-09-15T11:53:39.296Z,101075.38
2018-09-15T11:56:06.403Z,101065.64
2018-09-15T11:58:33.403Z,101055.56
2018-09-15T12:01:02.273Z,101049.07
2018-09-15T12:03:29.515Z,101047.33
2018-09-15T12:05:56.426Z,101048.23
2018-09-15T12:08:23.408Z,101042.45
2018-09-15T12:10:50.270Z,101057.67
2018-09-15T12:13:17.184Z,101059.37
2018-09-15T12:15:44.111Z,101057.65
2018-09-15T12:18:11.108Z,101058.98
2018-09-15T12:20:37.988Z,101056.98
2018-09-15T12:23:04.900Z,101059.94
2018-09-15T12:25:31.874Z,101057.41
2018-09-15T12:27:58.847Z,101056.52
2018-09-15T12:30:25.768Z,101064.03
2018-09-15T12:32:53.521Z,101075.52
2018-09-15T12:35:20.395Z,101078.08
2018-09-15T12:37:47.356Z,101083.80
2018-09-15T12:40:14.395Z,101066.81
2018-09-15T12:42:41.263Z,101071.48
2018-09-15T12:45:08.291Z,101083.17
2018-09-15T12:47:35.235Z,101080.08
2018-09-15T12:50:02.385Z,101073.16
2018-09-15T12:52:30.188Z,101063.81
2018-09-15T12:54:57.095Z,101061.19
2018-09-15T12:57:24.031Z,101058.65
2018-09-15T12:59:51.028Z,101057.36
2018-09-15T13:02:18.037Z,101050.45
2018-09-15T13:04:44.948Z,101050.66
2018-09-15T13:07:11.861Z,101050.66
2018-09-15T13:09:38.815Z,101056.30
2018-09-15T13:12:06.129Z,101052.95
2018-09-15T13:14:32.971Z,101041.11
2018-09-15T13:16:59.899Z,101038.28
2018-09-15T13:19:26.848Z,101037.11
2018-09-15T13:21:53.804Z,101028.52
2018-09-15T13:24:20.877Z,101027.03
2018-09-15T13:26:47.750Z,101030.59
2018-09-15T13:29:14.684Z,101031.18
2018-09-15T13:31:41.656Z,101023.56
2018-09-15T13:34:08.641Z,101016.64
2018-09-15T13:36:35.555Z,101006.59
2018-09-15T13:39:03.822Z,101004.39
2018-09-15T13:41:30.707Z,101001.42
2018-09-15T13:43:57.691Z,100998.50
2018-09-15T13:46:24.656Z,100999.31
2018-09-15T13:48:51.903Z,101001.66
2018-09-15T13:51:18.836Z,100999.44
2018-09-15T13:53:45.788Z,100999.89
2018-09-15T13:56:12.651Z,100999.20
2018-09-15T13:58:39.604Z,100990.30
2018-09-15T14:01:06.699Z,100990.20
2018-09-15T14:03:33.655Z,100980.91
2018-09-15T14:06:00.583Z,100971.20
2018-09-15T14:08:27.591Z,100980.25
2018-09-15T14:10:54.520Z,100986.28
2018-09-15T14:13:21.496Z,100974.20
2018-09-15T14:15:48.503Z,100986.80
2018-09-15T14:18:15.336Z,100980.69
2018-09-15T14:20:42.551Z,100987.94
2018-09-15T14:23:09.512Z,100983.36
2018-09-15T14:25:36.503Z,100978.98
2018-09-15T14:28:03.700Z,100988.64
2018-09-15T14:30:30.659Z,100993.54
2018-09-15T14:32:57.617Z,100999.75
2018-09-15T14:35:24.580Z,100994.63
2018-09-15T14:37:51.447Z,100991.88
2018-09-15T14:40:18.395Z,100992.59
2018-09-15T14:42:45.389Z,100993.62
2018-09-15T14:45:12.340Z,100988.14
2018-09-15T14:47:39.419Z,100994.84
2018-09-15T14:50:06.384Z,100996.57
2018-09-15T14:52:33.299Z,100981.77
2018-09-15T14:55:00.283Z,100979.70
2018-09-15T14:57:27.187Z,100976.41
2018-09-15T14:59:54.179Z,100970.52
2018-09-15T15:02:21.119Z,100979.27
2018-09-15T15:04:48.063Z,100986.98
2018-09-15T15:07:16.008Z,100987.87
2018-09-15T15:09:42.915Z,100985.27
2018-09-15T15:12:10.013Z,100971.31
2018-09-15T15:14:36.923Z,100980.13
2018-09-15T15:17:03.919Z,100985.02
2018-09-15T15:19:31.918Z,100988.80
2018-09-15T15:21:58.816Z,100993.48
2018-09-15T15:24:25.791Z,100991.39
2018-09-15T15:26:52.793Z,100991.41
2018-09-15T15:29:19.720Z,100994.05
2018-09-15T15:31:46.790Z,100986.13
2018-09-15T15:34:13.608Z,100991.44
2018-09-15T15:36:40.624Z,100989.91
2018-09-15T15:39:07.918Z,100994.89
2018-09-15T15:41:34.827Z,100995.31
2018-09-15T15:44:01.805Z,101001.52
2018-09-15T15:46:28.730Z,100996.02
2018-09-15T15:48:55.668Z,100994.62
2018-09-15T15:51:22.689Z,100998.77
2018-09-15T15:53:49.599Z,100995.30
2018-09-15T15:56:16.535Z,100995.90
2018-09-15T15:58:43.748Z,100990.19
2018-09-15T16:01:10.472Z,100987.34
2018-09-15T16:03:37.407Z,100986.42
2018-09-15T16:06:04.384Z,100986.73
2018-09-15T16:08:31.315Z,100988.87
2018-09-15T16:10:58.274Z,100982.66
2018-09-15T16:13:25.244Z,100992.94
2018-09-15T16:15:52.194Z,100986.03
2018-09-15T16:18:19.154Z,100998.05
2018-09-15T16:20:46.099Z,100994.28
2018-09-15T16:23:13.083Z,100996.02
2018-09-15T16:25:41.097Z,100993.55
2018-09-15T16:28:08.016Z,101002.52
2018-09-15T16:30:35.026Z,101006.09
2018-09-15T16:33:01.844Z,101000.89
2018-09-15T16:35:28.789Z,100994.84
2018-09-15T16:37:55.644Z,100994.47
2018-09-15T16:40:22.588Z,100998.85
2018-09-15T16:42:49.606Z,100999.92
2018-09-15T16:45:16.564Z,101000.45
2018-09-15T16:47:43.504Z,101004.77
2018-09-15T16:50:10.474Z,101005.79
2018-09-15T16:52:37.375Z,101001.47
2018-09-15T16:55:04.411Z,100993.22
2018-09-15T16:57:31.343Z,100999.67
2018-09-15T16:59:58.279Z,101009.98
2018-09-15T17:02:25.251Z,101009.27
2018-09-15T17:04:52.507Z,101019.45
2018-09-15T17:07:19.423Z,101021.08
2018-09-15T17:09:46.279Z,101026.17
2018-09-15T17:12:13.243Z,101025.97
2018-09-15T17:14:40.193Z,101026.41
2018-09-15T17:17:07.156Z,101028.45
2018-09-15T17:19:34.494Z,101034.99
2018-09-15T17:22:01.379Z,101032.63
2018-09-15T17:24:28.331Z,101030.83
2018-09-15T17:26:55.283Z,101033.16
2018-09-15T17:29:22.240Z,101035.19
2018-09-15T17:31:49.120Z,101035.50
2018-09-15T17:34:16.069Z,101028.52
2018-09-15T17:36:43.025Z,101033.15
2018-09-15T17:39:11.286Z,101034.21
2018-09-15T17:41:38.172Z,101037.17
2018-09-15T17:44:05.411Z,101041.78
2018-09-15T17:46:32.391Z,101040.17
2018-09-15T17:48:59.356Z,101052.78
2018-09-15T17:51:26.248Z,101053.18
2018-09-15T17:53:53.155Z,101049.56
2018-09-15T17:56:20.028Z,101060.20
2018-09-15T17:58:47.195Z,101058.28
2018-09-15T18:01:14.052Z,101054.06
2018-09-15T18:03:41.105Z,101057.70
2018-09-15T18:06:07.993Z,101052.94
2018-09-15T18:08:34.928Z,101056.25
2018-09-15T18:11:01.863Z,101057.76
2018-09-15T18:13:28.843Z,101062.16
2018-09-15T18:15:55.950Z,101060.83
2018-09-15T18:18:22.827Z,101061.55
2018-09-15T18:20:50.172Z,101065.56
2018-09-15T18:23:16.868Z,101067.30
2018-09-15T18:25:43.807Z,101067.20
2018-09-15T18:28:10.756Z,101070.19
2018-09-15T18:30:37.703Z,101077.87
2018-09-15T18:33:04.748Z,101075.23
2018-09-15T18:35:31.624Z,101078.41
2018-09-15T18:37:58.660Z,101080.98
2018-09-15T18:40:25.567Z,101079.52
2018-09-15T18:42:52.547Z,101081.55
2018-09-15T18:45:19.500Z,101088.50
2018-09-15T18:47:46.436Z,101100.11
2018-09-15T18:50:13.368Z,101089.91
2018-09-15T18:52:40.311Z,101089.61
2018-09-15T18:55:07.296Z,101098.61
2018-09-15T18:57:34.166Z,101096.67
2018-09-15T19:00:01.103Z,101099.62
2018-09-15T19:02:28.099Z,101102.08
2018-09-15T19:04:55.227Z,101101.05
2018-09-15T19:07:22.193Z,101101.21
2018-09-15T19:09:49.132Z,101100.69
2018-09-15T19:12:16.091Z,101100.86
2018-09-15T19:14:43.320Z,101100.23
2018-09-15T19:17:10.215Z,101106.68
2018-09-15T19:19:37.186Z,101102.39
2018-09-15T19:22:04.268Z,101110.86
2018-09-15T19:24:31.191Z,101100.20
2018-09-15T19:26:58.161Z,101104.66
2018-09-15T19:29:25.099Z,101100.55
2018-09-15T19:31:52.146Z,101106.95
2018-09-15T19:34:19.067Z,101102.58
2018-09-15T19:36:45.959Z,101105.09
2018-09-15T19:39:14.017Z,101105.62
2018-09-15T19:41:40.849Z,101109.84
2018-09-15T19:44:07.808Z,101105.97
2018-09-15T19:46:35.035Z,101111.22
2018-09-15T19:49:01.987Z,101106.79
2018-09-15T19:51:28.971Z,101114.23
2018-09-15T19:53:55.899Z,101118.66
2018-09-15T19:56:22.863Z,101123.38
2018-09-15T19:58:49.842Z,101115.34
2018-09-15T20:01:16.812Z,101116.34
2018-09-15T20:03:43.735Z,101115.50
2018-09-15T20:06:10.790Z,101123.45
2018-09-15T20:08:37.641Z,101125.52
2018-09-15T20:11:05.555Z,101128.58
2018-09-15T20:13:32.420Z,101127.12
2018-09-15T20:15:58.552Z,101130.73
2018-09-15T20:18:24.627Z,101130.94
2018-09-15T20:20:51.749Z,101126.14
2018-09-15T20:23:18.632Z,101129.68
2018-09-15T20:25:45.551Z,101129.45
2018-09-15T20:28:12.540Z,101131.48
2018-09-15T20:30:39.444Z,101134.07
2018-09-15T20:33:06.507Z,101132.06
2018-09-15T20:35:33.286Z,101128.05
2018-09-15T20:38:00.216Z,101137.73
2018-09-15T20:40:27.200Z,101132.90
2018-09-15T20:42:54.127Z,101130.22
2018-09-15T20:45:20.989Z,101135.77
2018-09-15T20:47:47.943Z,101124.45
2018-09-15T20:50:14.895Z,101123.63
2018-09-15T20:52:41.846Z,101126.38
2018-09-15T20:55:09.735Z,101127.41
2018-09-15T20:57:36.639Z,101126.09
2018-09-15T21:00:04.608Z,101126.16
2018-09-15T21:02:31.569Z,101121.52
2018-09-15T21:04:58.475Z,101125.06
2018-09-15T21:07:25.347Z,101130.82
2018-09-15T21:09:52.320Z,101127.28
2018-09-15T21:12:19.263Z,101127.55
2018-09-15T21:14:46.283Z,101132.41
2018-09-15T21:17:13.192Z,101135.45
2018-09-15T21:19:40.124Z,101136.14
2018-09-15T21:22:07.088Z,101134.66
2018-09-15T21:24:34.105Z,101135.14
2018-09-15T21:27:00.991Z,101141.08
2018-09-15T21:29:28.896Z,101142.41
2018-09-15T21:31:56.231Z,101145.69
2018-09-15T21:34:23.191Z,101142.33
2018-09-15T21:36:50.159Z,101140.53
2018-09-15T21:39:17.116Z,101144.34
2018-09-15T21:41:44.072Z,101137.20
2018-09-15T21:44:11.032Z,101133.22
2018-09-15T21:46:38.688Z,101141.05
2018-09-15T21:49:05.666Z,101133.86
2018-09-15T21:51:32.514Z,101135.39
2018-09-15T21:53:59.507Z,101132.06
2018-09-15T21:56:26.431Z,101132.42
2018-09-15T21:58:53.570Z,101129.86
2018-09-15T22:01:20.563Z,101134.34
2018-09-15T22:03:53.156Z,101126.52
2018-09-15T22:06:20.095Z,101128.26
2018-09-15T22:08:47.059Z,101131.45
2018-09-15T22:11:14.029Z,101130.30
2018-09-15T22:13:40.892Z,101137.33
2018-09-15T22:16:07.831Z,101134.94
2018-09-15T22:18:34.782Z,101138.98
2018-09-15T22:21:01.787Z,101147.58
2018-09-15T22:23:28.595Z,101147.11
2018-09-15T22:25:55.555Z,101146.08
2018-09-15T22:28:22.507Z,101143.01
2018-09-15T22:30:49.467Z,101148.42
2018-09-15T22:33:16.427Z,101151.95
2018-09-15T22:35:43.278Z,101154.04
2018-09-15T22:38:10.247Z,101147.03
2018-09-15T22:40:37.211Z,101151.36
2018-09-15T22:43:04.327Z,101147.11
2018-09-15T22:45:31.142Z,101148.67
2018-09-15T22:47:58.062Z,101142.63
2018-09-15T22:50:25.064Z,101141.13
2018-09-15T22:52:52.001Z,101142.63
2018-09-15T22:55:18.863Z,101130.61
2018-09-15T22:57:46.827Z,101143.73
2018-09-15T23:00:13.783Z,101142.01
2018-09-15T23:02:40.728Z,101131.83
2018-09-15T23:05:07.712Z,101132.72
2018-09-15T23:07:34.572Z,101128.06
2018-09-15T23:10:01.500Z,101133.14
2018-09-15T23:12:28.462Z,101126.55
2018-09-15T23:14:55.424Z,101126.13
2018-09-15T23:17:22.366Z,101132.67
2018-09-15T23:19:49.211Z,101129.25
2018-09-15T23:22:16.087Z,101128.16
2018-09-15T23:24:43.067Z,101127.95
2018-09-15T23:27:09.990Z,101125.95
2018-09-15T23:29:37.028Z,101126.25
2018-09-15T23:32:03.863Z,101130.90
2018-09-15T23:34:30.805Z,101126.55
2018-09-15T23:36:57.736Z,101128.91
2018-09-15T23:39:24.680Z,101125.05
2018-09-15T23:41:51.638Z,101128.08
2018-09-15T23:44:18.588Z,101129.28
2018-09-15T23:46:45.463Z,101125.10
2018-09-15T23:49:12.412Z,101128.31
2018-09-15T23:51:39.372Z,101124.68
2018-09-15T23:54:06.231Z,101129.97
2018-09-15T23:56:33.188Z,101130.83
2018-09-15T23:59:00.136Z,101136.75
